createdAt,value
2022-10-06T00:00:37.181Z,7.57
2022-10-06T00:03:04.222Z,5.55
2022-10-06T00:05:33.932Z,6.93
2022-10-06T00:08:03.976Z,3.38
2022-10-06T00:10:31.173Z,4.63
2022-10-06T00:12:58.253Z,8.23
2022-10-06T00:15:30.743Z,12.93
2022-10-06T00:17:58.175Z,6.65
2022-10-06T00:20:26.728Z,4.18
2022-10-06T00:22:53.394Z,4.53
2022-10-06T00:25:24.439Z,6.38
2022-10-06T00:27:52.682Z,5.20
2022-10-06T00:30:25.658Z,5.68
2022-10-06T00:32:57.222Z,9.48
2022-10-06T00:35:25.537Z,5.78
2022-10-06T00:37:53.701Z,3.97
2022-10-06T00:40:24.068Z,5.90
2022-10-06T00:43:00.104Z,4.28
2022-10-06T00:45:36.455Z,5.57
2022-10-06T00:48:07.673Z,9.45
2022-10-06T00:50:36.118Z,6.00
2022-10-06T00:53:03.138Z,4.05
2022-10-06T00:55:32.980Z,5.10
2022-10-06T00:58:00.809Z,4.90
2022-10-06T01:00:28.390Z,4.60
2022-10-06T01:03:04.369Z,4.88
2022-10-06T01:05:34.757Z,5.28
2022-10-06T01:08:01.695Z,5.78
2022-10-06T01:10:28.382Z,8.02
2022-10-06T01:12:57.161Z,5.03
2022-10-06T01:15:25.950Z,3.08
2022-10-06T01:18:09.636Z,4.35
2022-10-06T01:20:37.025Z,9.20
2022-10-06T01:23:06.875Z,4.43
2022-10-06T01:25:34.908Z,4.45
2022-10-06T01:28:04.420Z,6.72
2022-10-06T01:30:41.386Z,5.50
2022-10-06T01:33:07.953Z,5.80
2022-10-06T01:35:34.478Z,8.65
2022-10-06T01:38:00.922Z,6.70
2022-10-06T01:40:29.144Z,5.78
2022-10-06T01:42:56.646Z,7.20
2022-10-06T01:45:23.287Z,5.10
2022-10-06T01:47:49.851Z,3.35
2022-10-06T01:50:16.346Z,2.38
2022-10-06T01:52:42.842Z,1.13
2022-10-06T01:55:09.466Z,1.52
2022-10-06T01:57:40.836Z,1.73
2022-10-06T02:00:08.339Z,4.07
2022-10-06T02:02:34.883Z,1.25
2022-10-06T02:05:01.347Z,1.83
2022-10-06T02:07:27.885Z,2.67
2022-10-06T02:09:54.380Z,1.02
2022-10-06T02:12:21.077Z,1.60
2022-10-06T02:14:47.519Z,1.92
2022-10-06T02:17:14.188Z,0.80
2022-10-06T02:19:40.741Z,1.00
2022-10-06T02:22:07.252Z,2.03
2022-10-06T02:24:34.148Z,2.67
2022-10-06T02:27:00.720Z,1.48
2022-10-06T02:29:27.199Z,2.75
2022-10-06T02:31:56.387Z,1.17
2022-10-06T02:34:23.233Z,1.25
2022-10-06T02:36:49.676Z,0.85
2022-10-06T02:39:16.199Z,1.55
2022-10-06T02:41:42.674Z,3.45
2022-10-06T02:44:09.211Z,5.47
2022-10-06T02:46:35.727Z,2.67
2022-10-06T02:49:02.450Z,1.55
2022-10-06T02:51:29.966Z,4.72
2022-10-06T02:53:56.520Z,0.90
2022-10-06T02:56:25.016Z,1.52
2022-10-06T02:58:53.249Z,6.75
2022-10-06T03:01:22.147Z,4.63
2022-10-06T03:03:48.863Z,7.55
2022-10-06T03:06:22.675Z,3.22
2022-10-06T03:08:52.227Z,3.35
2022-10-06T03:11:20.966Z,4.90
2022-10-06T03:13:48.098Z,5.85
2022-10-06T03:16:20.466Z,7.40
2022-10-06T03:18:49.886Z,6.93
2022-10-06T03:21:17.975Z,8.80
2022-10-06T03:23:47.650Z,7.68
2022-10-06T03:26:15.621Z,5.32
2022-10-06T03:28:42.246Z,3.95
2022-10-06T03:31:08.975Z,5.80
2022-10-06T03:33:35.498Z,3.95
2022-10-06T03:36:04.767Z,5.63
2022-10-06T03:38:32.385Z,4.28
2022-10-06T03:41:11.296Z,4.97
2022-10-06T03:43:39.037Z,6.95
2022-10-06T03:46:06.974Z,8.20
2022-10-06T03:48:35.019Z,9.23
2022-10-06T03:51:06.979Z,5.82
2022-10-06T03:56:01.826Z,5.30
2022-10-06T03:58:29.692Z,6.90
2022-10-06T04:01:25.877Z,6.40
2022-10-06T04:03:57.733Z,6.25
2022-10-06T04:06:26.411Z,8.93
2022-10-06T04:08:54.426Z,9.55
2022-10-06T04:11:31.360Z,7.30
2022-10-06T04:14:03.316Z,4.93
2022-10-06T04:19:12.213Z,7.82
2022-10-06T04:21:40.415Z,10.68
2022-10-06T04:24:08.199Z,6.93
2022-10-06T04:26:41.184Z,8.13
2022-10-06T04:29:08.236Z,9.18
2022-10-06T04:31:37.249Z,5.93
2022-10-06T04:34:05.098Z,6.45
2022-10-06T04:36:41.199Z,8.30
2022-10-06T04:39:10.527Z,10.60
2022-10-06T04:41:39.746Z,8.77
2022-10-06T04:44:07.201Z,10.55
2022-10-06T04:46:43.266Z,10.77
2022-10-06T04:49:17.649Z,9.35
2022-10-06T04:51:46.372Z,9.75
2022-10-06T04:54:12.857Z,8.77
2022-10-06T04:56:39.315Z,6.80
2022-10-06T04:59:05.789Z,13.63
2022-10-06T05:01:34.851Z,9.88
2022-10-06T05:04:03.483Z,10.15
2022-10-06T05:06:32.101Z,8.10
2022-10-06T05:09:01.260Z,9.55
2022-10-06T05:11:28.931Z,11.07
2022-10-06T05:13:56.813Z,10.07
2022-10-06T05:16:25.577Z,10.68
2022-10-06T05:18:52.297Z,10.50
2022-10-06T05:21:21.333Z,9.50
2022-10-06T05:23:48.172Z,12.63
2022-10-06T05:26:17.258Z,11.95
2022-10-06T05:28:43.973Z,9.27
2022-10-06T05:31:14.085Z,11.85
2022-10-06T05:33:43.579Z,14.63
2022-10-06T05:36:17.301Z,6.57
2022-10-06T05:38:44.747Z,8.23
2022-10-06T05:41:12.576Z,12.60
2022-10-06T05:43:39.992Z,12.70
2022-10-06T05:46:10.758Z,14.38
2022-10-06T05:48:37.262Z,13.77
2022-10-06T05:51:09.447Z,16.35
2022-10-06T05:53:36.995Z,13.00
2022-10-06T05:56:09.210Z,11.57
2022-10-06T05:58:37.905Z,16.25
2022-10-06T06:01:07.499Z,12.75
2022-10-06T06:03:34.120Z,17.27
2022-10-06T06:06:00.635Z,12.23
2022-10-06T06:08:27.504Z,12.88
2022-10-06T06:10:54.551Z,10.23
2022-10-06T06:13:24.063Z,12.43
2022-10-06T06:16:04.329Z,11.05
2022-10-06T06:18:32.824Z,14.60
2022-10-06T06:21:01.799Z,11.90
2022-10-06T06:23:36.582Z,16.02
2022-10-06T06:26:09.553Z,16.23
2022-10-06T06:28:37.204Z,14.23
2022-10-06T06:31:14.140Z,9.20
2022-10-06T06:33:42.756Z,10.75
2022-10-06T06:36:16.354Z,11.68
2022-10-06T06:38:46.321Z,14.82
2022-10-06T06:41:17.702Z,11.98
2022-10-06T06:43:45.256Z,8.55
2022-10-06T06:46:14.971Z,13.45
2022-10-06T06:48:42.308Z,11.15
2022-10-06T06:51:13.190Z,19.40
2022-10-06T06:53:40.619Z,12.77
2022-10-06T06:56:08.824Z,10.63
2022-10-06T06:58:36.119Z,14.25
2022-10-06T07:01:06.164Z,16.33
2022-10-06T07:03:56.040Z,13.80
2022-10-06T07:06:19.790Z,13.02
2022-10-06T07:08:47.721Z,11.20
2022-10-06T07:11:26.208Z,16.00
2022-10-06T07:13:58.582Z,12.63
2022-10-06T07:16:44.176Z,13.57
2022-10-06T07:19:30.456Z,12.55
2022-10-06T07:22:39.048Z,12.20
2022-10-06T07:25:24.370Z,14.32
2022-10-06T07:27:52.189Z,15.55
2022-10-06T07:30:24.154Z,13.00
2022-10-06T07:35:21.145Z,14.95
2022-10-06T07:37:48.714Z,11.95
2022-10-06T07:40:15.327Z,15.23
2022-10-06T07:42:48.274Z,14.45
2022-10-06T07:45:35.358Z,15.98
2022-10-06T07:48:03.649Z,14.52
2022-10-06T07:50:30.522Z,13.50
2022-10-06T07:52:56.988Z,13.30
2022-10-06T07:55:23.793Z,13.45
2022-10-06T07:57:51.210Z,15.38
2022-10-06T08:00:22.571Z,15.90
2022-10-06T08:02:49.388Z,13.20
2022-10-06T08:05:15.973Z,12.75
2022-10-06T08:07:42.461Z,13.90
2022-10-06T08:10:09.394Z,18.60
2022-10-06T08:12:37.830Z,14.38
2022-10-06T08:15:07.622Z,20.92
2022-10-06T08:17:38.123Z,18.10
2022-10-06T08:20:10.603Z,12.38
2022-10-06T08:22:38.688Z,15.27
2022-10-06T08:25:09.994Z,15.18
2022-10-06T08:27:37.600Z,13.70
2022-10-06T08:30:07.741Z,13.75
2022-10-06T08:32:34.512Z,12.30
2022-10-06T08:35:01.232Z,11.55
2022-10-06T08:37:27.881Z,15.25
2022-10-06T08:39:55.455Z,14.45
2022-10-06T08:42:46.575Z,18.83
2022-10-06T08:45:40.400Z,11.40
2022-10-06T08:48:07.214Z,15.70
2022-10-06T08:50:42.858Z,17.98
2022-10-06T08:53:26.114Z,14.13
2022-10-06T08:56:01.130Z,11.80
2022-10-06T08:58:51.966Z,15.10
2022-10-06T09:01:25.703Z,10.23
2022-10-06T09:04:03.754Z,17.17
2022-10-06T09:06:50.346Z,13.63
2022-10-06T09:09:34.912Z,12.25
2022-10-06T09:12:34.677Z,14.55
2022-10-06T09:15:30.206Z,12.40
2022-10-06T09:18:49.422Z,15.32
2022-10-06T09:21:19.197Z,10.57
2022-10-06T09:23:53.326Z,9.80
2022-10-06T09:26:31.225Z,9.00
2022-10-06T09:28:58.449Z,15.63
2022-10-06T09:31:27.217Z,13.30
2022-10-06T09:34:04.554Z,12.40
2022-10-06T09:36:32.131Z,11.07
2022-10-06T09:38:59.969Z,15.18
2022-10-06T09:41:38.463Z,12.55
2022-10-06T09:44:19.927Z,15.73
2022-10-06T09:46:46.526Z,11.35
2022-10-06T09:49:13.080Z,14.32
2022-10-06T09:51:39.597Z,16.83
2022-10-06T09:54:15.789Z,9.10
2022-10-06T09:56:45.052Z,9.95
2022-10-06T09:59:37.655Z,7.28
2022-10-06T10:02:26.943Z,13.10
2022-10-06T10:04:56.072Z,10.10
2022-10-06T10:07:27.948Z,9.40
2022-10-06T10:12:36.538Z,12.80
2022-10-06T10:15:12.016Z,12.02
2022-10-06T10:17:46.059Z,10.73
2022-10-06T10:20:24.896Z,9.90
2022-10-06T10:22:53.070Z,9.43
2022-10-06T10:25:31.862Z,8.73
2022-10-06T10:28:04.692Z,13.30
2022-10-06T10:30:33.496Z,10.07
2022-10-06T10:35:55.880Z,10.25
2022-10-06T10:38:24.278Z,15.13
2022-10-06T10:41:09.670Z,14.15
2022-10-06T10:43:46.097Z,9.07
2022-10-06T10:46:22.489Z,13.23
2022-10-06T10:48:56.677Z,13.70
2022-10-06T10:51:31.581Z,8.23
2022-10-06T10:54:05.081Z,11.02
2022-10-06T10:56:33.624Z,8.32
2022-10-06T10:59:10.950Z,10.70
2022-10-06T11:01:59.565Z,11.80
2022-10-06T11:04:26.934Z,9.07
2022-10-06T11:07:23.357Z,17.58
2022-10-06T11:09:49.796Z,7.32
2022-10-06T11:12:25.050Z,15.15
2022-10-06T11:14:54.294Z,13.55
2022-10-06T11:17:33.208Z,16.80
2022-10-06T11:20:21.939Z,13.15
2022-10-06T11:23:15.283Z,11.75
2022-10-06T11:26:05.510Z,11.65
2022-10-06T11:28:39.343Z,9.35
2022-10-06T11:31:33.384Z,11.50
2022-10-06T11:34:04.706Z,9.20
2022-10-06T11:36:55.642Z,6.75
2022-10-06T11:39:30.794Z,9.52
2022-10-06T11:42:06.296Z,9.70
2022-10-06T11:44:41.404Z,9.65
2022-10-06T11:47:17.213Z,13.30
2022-10-06T11:49:52.852Z,8.85
2022-10-06T11:52:19.308Z,12.52
2022-10-06T11:54:54.201Z,10.23
2022-10-06T11:57:29.374Z,14.15
2022-10-06T12:00:17.234Z,11.25
2022-10-06T12:02:46.028Z,8.07
2022-10-06T12:05:55.291Z,10.50
2022-10-06T12:08:00.230Z,11.23
2022-10-06T12:10:29.841Z,9.98
2022-10-06T12:13:07.413Z,9.43
2022-10-06T12:19:07.844Z,8.48
2022-10-06T12:21:54.589Z,7.80
2022-10-06T12:24:31.496Z,11.80
2022-10-06T12:27:26.324Z,8.88
2022-10-06T12:30:14.295Z,14.57
2022-10-06T12:32:55.832Z,7.65
2022-10-06T12:35:28.973Z,8.52
2022-10-06T12:37:58.367Z,9.05
2022-10-06T12:40:37.431Z,10.32
2022-10-06T12:43:34.454Z,10.25
2022-10-06T12:46:16.402Z,8.18
2022-10-06T12:49:04.851Z,11.00
2022-10-06T12:51:46.785Z,10.65
2022-10-06T12:54:24.938Z,10.90
2022-10-06T12:57:15.692Z,8.15
2022-10-06T12:59:42.257Z,8.88
2022-10-06T13:02:28.316Z,8.85
2022-10-06T13:05:05.023Z,9.73
2022-10-06T13:07:33.699Z,5.22
2022-10-06T13:10:15.127Z,8.70
2022-10-06T13:12:47.373Z,9.23
2022-10-06T13:15:25.042Z,10.13
2022-10-06T13:18:08.081Z,7.70
2022-10-06T13:20:47.923Z,11.30
2022-10-06T13:23:34.638Z,11.82
2022-10-06T13:26:04.572Z,8.02
2022-10-06T13:28:47.415Z,8.70
2022-10-06T13:31:33.496Z,7.07
2022-10-06T13:34:35.437Z,8.45
2022-10-06T13:37:02.401Z,7.35
2022-10-06T13:39:31.806Z,7.30
2022-10-06T13:42:03.844Z,9.82
2022-10-06T13:44:39.004Z,8.65
2022-10-06T13:47:18.286Z,10.50
2022-10-06T13:49:56.839Z,7.80
2022-10-06T13:52:34.579Z,7.50
2022-10-06T13:55:02.685Z,9.88
2022-10-06T13:57:49.884Z,10.75
2022-10-06T14:00:23.842Z,17.25
2022-10-06T14:02:55.693Z,8.50
2022-10-06T14:07:50.143Z,9.68
2022-10-06T14:10:46.332Z,7.40
2022-10-06T14:13:21.633Z,8.90
2022-10-06T14:15:58.345Z,8.80
2022-10-06T14:18:46.972Z,7.68
2022-10-06T14:21:41.458Z,8.07
2022-10-06T14:24:26.932Z,8.63
2022-10-06T14:26:54.946Z,10.02
2022-10-06T14:29:22.525Z,9.18
2022-10-06T14:31:49.877Z,11.48
2022-10-06T14:34:18.329Z,9.35
2022-10-06T14:36:47.378Z,7.90
2022-10-06T14:39:15.750Z,8.15
2022-10-06T14:41:42.299Z,7.20
2022-10-06T14:44:11.250Z,7.78
2022-10-06T14:46:42.466Z,9.63
2022-10-06T14:49:11.302Z,9.02
2022-10-06T14:51:39.234Z,14.13
2022-10-06T14:54:07.699Z,5.43
2022-10-06T14:56:35.582Z,9.38
2022-10-06T14:59:05.822Z,12.75
2022-10-06T15:01:34.855Z,7.10
2022-10-06T15:04:04.530Z,11.50
2022-10-06T15:06:49.319Z,6.35
2022-10-06T15:09:15.874Z,7.57
2022-10-06T15:11:42.445Z,9.23
2022-10-06T15:14:09.773Z,8.60
2022-10-06T15:16:40.689Z,6.15
2022-10-06T15:19:07.165Z,11.20
2022-10-06T15:21:34.199Z,7.97
2022-10-06T15:24:03.843Z,7.78
2022-10-06T15:26:50.503Z,8.90
2022-10-06T15:29:17.961Z,9.63
2022-10-06T15:31:52.591Z,12.48
2022-10-06T15:34:25.998Z,8.25
2022-10-06T15:36:53.943Z,8.77
2022-10-06T15:39:23.596Z,9.65
2022-10-06T15:41:50.917Z,9.65
2022-10-06T15:44:19.488Z,8.20
2022-10-06T15:46:51.194Z,7.95
2022-10-06T15:49:20.290Z,12.68
2022-10-06T15:51:52.387Z,10.95
2022-10-06T15:54:21.798Z,10.35
2022-10-06T15:56:50.574Z,11.80
2022-10-06T15:59:21.326Z,7.35
2022-10-06T16:01:48.286Z,6.80
2022-10-06T16:04:26.489Z,8.98
2022-10-06T16:06:56.908Z,13.32
2022-10-06T16:09:31.364Z,5.95
2022-10-06T16:12:00.236Z,7.82
2022-10-06T16:14:26.688Z,9.27
2022-10-06T16:16:54.116Z,9.35
2022-10-06T16:19:20.617Z,7.10
2022-10-06T16:21:49.068Z,8.10
2022-10-06T16:24:19.830Z,10.50
2022-10-06T16:26:47.300Z,7.22
2022-10-06T16:29:14.991Z,14.15
2022-10-06T16:31:41.649Z,7.97
2022-10-06T16:34:08.309Z,10.75
2022-10-06T16:36:36.897Z,9.95
2022-10-06T16:39:05.942Z,8.18
2022-10-06T16:41:32.715Z,8.13
2022-10-06T16:43:59.486Z,10.57
2022-10-06T16:46:29.100Z,10.93
2022-10-06T16:48:57.454Z,12.38
2022-10-06T16:51:32.092Z,10.15
2022-10-06T16:54:00.976Z,8.13
2022-10-06T16:56:30.461Z,13.20
2022-10-06T16:58:59.184Z,10.85
2022-10-06T17:01:30.447Z,11.80
2022-10-06T17:03:58.786Z,17.50
2022-10-06T17:06:25.740Z,16.42
2022-10-06T17:08:53.481Z,16.73
2022-10-06T17:11:21.466Z,19.83
2022-10-06T17:13:49.251Z,13.70
2022-10-06T17:16:19.389Z,14.98
2022-10-06T17:18:50.691Z,16.75
2022-10-06T17:21:40.335Z,13.50
2022-10-06T17:24:05.451Z,12.35
2022-10-06T17:26:34.706Z,14.13
2022-10-06T17:29:05.813Z,13.70
2022-10-06T17:31:37.551Z,11.30
2022-10-06T17:34:08.806Z,10.98
2022-10-06T17:36:37.942Z,9.75
2022-10-06T17:39:05.695Z,10.05
2022-10-06T17:41:35.238Z,11.73
2022-10-06T17:44:04.556Z,11.48
2022-10-06T17:46:33.908Z,14.55
2022-10-06T17:49:08.587Z,12.80
2022-10-06T17:51:36.939Z,13.77
2022-10-06T17:54:06.597Z,10.23
2022-10-06T17:56:34.979Z,16.58
2022-10-06T17:59:07.350Z,17.63
2022-10-06T18:01:35.747Z,16.95
2022-10-06T18:04:04.546Z,12.10
2022-10-06T18:06:33.571Z,13.93
2022-10-06T18:09:02.578Z,15.48
2022-10-06T18:11:33.666Z,13.18
2022-10-06T18:14:21.336Z,12.33
2022-10-06T18:16:55.695Z,13.43
2022-10-06T18:19:26.326Z,12.70
2022-10-06T18:21:56.533Z,9.68
2022-10-06T18:24:26.066Z,13.02
2022-10-06T18:26:55.420Z,13.23
2022-10-06T18:29:24.643Z,15.27
2022-10-06T18:31:53.219Z,11.35
2022-10-06T18:37:06.564Z,9.45
2022-10-06T18:39:33.531Z,13.25
2022-10-06T18:42:02.909Z,11.18
2022-10-06T18:44:48.201Z,11.00
2022-10-06T18:47:32.986Z,14.98
2022-10-06T18:49:59.542Z,11.80
2022-10-06T18:52:25.983Z,9.88
2022-10-06T18:54:52.518Z,17.77
2022-10-06T18:57:20.741Z,14.45
2022-10-06T18:59:50.469Z,13.95
2022-10-06T19:02:17.065Z,10.43
2022-10-06T19:04:43.636Z,14.88
2022-10-06T19:07:10.290Z,12.93
2022-10-06T19:09:36.878Z,9.88
2022-10-06T19:12:03.966Z,12.65
2022-10-06T19:14:36.634Z,9.77
2022-10-06T19:17:10.938Z,9.07
2022-10-06T19:19:37.400Z,14.50
2022-10-06T19:22:04.833Z,11.18
2022-10-06T19:24:41.011Z,12.43
2022-10-06T19:27:12.150Z,13.75
2022-10-06T19:29:42.456Z,15.30
2022-10-06T19:32:08.943Z,14.10
2022-10-06T19:34:37.362Z,10.75
2022-10-06T19:37:05.411Z,8.18
2022-10-06T19:39:35.827Z,11.20
2022-10-06T19:42:20.490Z,11.07
2022-10-06T19:44:47.100Z,12.32
2022-10-06T19:47:15.337Z,9.18
2022-10-06T19:49:42.876Z,10.55
2022-10-06T19:52:12.402Z,13.88
2022-10-06T19:54:39.622Z,13.93
2022-10-06T19:57:07.171Z,10.82
2022-10-06T19:59:33.651Z,15.60
2022-10-06T20:02:00.919Z,17.75
2022-10-06T20:04:27.502Z,18.02
2022-10-06T20:06:54.097Z,17.50
2022-10-06T20:09:23.005Z,12.20
2022-10-06T20:11:50.923Z,19.27
2022-10-06T20:14:21.170Z,12.15
2022-10-06T20:16:50.725Z,17.45
2022-10-06T20:19:18.352Z,16.70
2022-10-06T20:21:45.543Z,20.98
2022-10-06T20:24:19.620Z,18.00
2022-10-06T20:26:48.468Z,17.33
2022-10-06T20:29:17.975Z,13.60
2022-10-06T20:31:47.009Z,18.90
2022-10-06T20:34:16.602Z,18.13
2022-10-06T20:36:43.649Z,17.30
2022-10-06T20:39:35.556Z,23.77
2022-10-06T20:42:02.700Z,11.55
2022-10-06T20:44:29.463Z,14.10
2022-10-06T20:46:56.036Z,15.07
2022-10-06T20:49:22.549Z,13.18
2022-10-06T20:51:52.484Z,9.88
2022-10-06T20:54:26.384Z,11.60
2022-10-06T20:56:54.967Z,13.75
2022-10-06T20:59:23.314Z,9.45
2022-10-06T21:01:52.672Z,11.30
2022-10-06T21:04:20.733Z,12.73
2022-10-06T21:06:47.914Z,11.85
2022-10-06T21:09:16.688Z,12.65
2022-10-06T21:11:44.585Z,13.40
2022-10-06T21:14:12.237Z,9.45
2022-10-06T21:16:42.534Z,11.32
2022-10-06T21:19:14.557Z,11.30
2022-10-06T21:24:08.534Z,12.15
2022-10-06T21:26:36.799Z,9.70
2022-10-06T21:29:03.369Z,11.68
2022-10-06T21:31:29.903Z,9.50
2022-10-06T21:33:56.646Z,12.85
2022-10-06T21:36:28.140Z,14.57
2022-10-06T21:38:57.497Z,10.45
2022-10-06T21:41:30.054Z,13.25
2022-10-06T21:44:07.563Z,14.50
2022-10-06T21:46:39.332Z,10.70
2022-10-06T21:49:09.467Z,11.23
2022-10-06T21:51:36.035Z,9.75
2022-10-06T21:54:03.299Z,12.30
2022-10-06T21:56:32.065Z,11.60
2022-10-06T21:58:59.271Z,15.35
2022-10-06T22:01:31.243Z,12.40
2022-10-06T22:06:25.067Z,14.30
2022-10-06T22:08:51.606Z,12.52
2022-10-06T22:11:23.566Z,17.33
2022-10-06T22:13:53.781Z,13.75
2022-10-06T22:16:22.237Z,11.48
2022-10-06T22:18:49.437Z,14.55
2022-10-06T22:21:17.757Z,12.45
2022-10-06T22:23:46.050Z,13.73
2022-10-06T22:26:14.466Z,12.48
2022-10-06T22:28:45.968Z,16.88
2022-10-06T22:31:13.482Z,13.82
2022-10-06T22:33:41.243Z,11.52
2022-10-06T22:36:09.959Z,14.13
2022-10-06T22:38:36.844Z,9.13
2022-10-06T22:41:06.933Z,13.48
2022-10-06T22:43:34.207Z,12.00
2022-10-06T22:46:01.342Z,10.15
2022-10-06T22:48:28.511Z,14.15
2022-10-06T22:50:54.998Z,12.75
2022-10-06T22:53:27.173Z,16.08
2022-10-06T22:55:55.669Z,12.10
2022-10-06T22:58:22.818Z,15.52
2022-10-06T23:00:49.663Z,12.93
2022-10-06T23:03:18.131Z,9.15
2022-10-06T23:05:55.725Z,18.45
2022-10-06T23:08:22.447Z,11.23
2022-10-06T23:10:49.003Z,11.68
2022-10-06T23:13:15.496Z,11.55
2022-10-06T23:15:42.076Z,8.40
2022-10-06T23:18:08.541Z,10.10
2022-10-06T23:20:35.113Z,8.68
2022-10-06T23:23:01.641Z,12.50
2022-10-06T23:25:28.146Z,12.45
2022-10-06T23:27:57.877Z,10.50
2022-10-06T23:30:24.421Z,9.85
2022-10-06T23:32:50.894Z,14.98
2022-10-06T23:35:17.442Z,11.38
2022-10-06T23:37:44.078Z,10.38
2022-10-06T23:40:10.903Z,8.27
2022-10-06T23:42:37.374Z,11.75
2022-10-06T23:45:04.298Z,10.75
2022-10-06T23:47:30.764Z,7.82
2022-10-06T23:49:57.236Z,11.15
2022-10-06T23:52:23.813Z,9.80
2022-10-06T23:54:50.675Z,11.23
2022-10-06T23:57:17.188Z,15.60
2022-10-06T23:59:43.623Z,15.57
